sensor_id;sensor_type;location;lat;lon;timestamp;temperature;humidity
18103;DHT22;9178;51.120;6.192;2023-03-14T00:01:08;11.00;99.90
18103;DHT22;9178;51.120;6.192;2023-03-14T00:03:35;10.70;99.90
18103;DHT22;9178;51.120;6.192;2023-03-14T00:06:03;10.30;99.90
18103;DHT22;9178;51.120;6.192;2023-03-14T00:08:31;10.10;99.90
18103;DHT22;9178;51.120;6.192;2023-03-14T00:11:03;10.00;99.90
18103;DHT22;9178;51.120;6.192;2023-03-14T00:13:30;9.90;99.90
18103;DHT22;9178;51.120;6.192;2023-03-14T00:16:02;9.90;99.90
18103;DHT22;9178;51.120;6.192;2023-03-14T00:18:29;9.90;99.90
18103;DHT22;9178;51.120;6.192;2023-03-14T00:20:57;9.90;99.90
18103;DHT22;9178;51.120;6.192;2023-03-14T00:23:24;9.80;99.90
18103;DHT22;9178;51.120;6.192;2023-03-14T00:25:52;9.80;99.90
18103;DHT22;9178;51.120;6.192;2023-03-14T00:28:19;9.70;99.90
18103;DHT22;9178;51.120;6.192;2023-03-14T00:30:46;9.60;99.90
18103;DHT22;9178;51.120;6.192;2023-03-14T00:33:13;9.50;99.90
18103;DHT22;9178;51.120;6.192;2023-03-14T00:35:40;9.50;99.90
18103;DHT22;9178;51.120;6.192;2023-03-14T00:38:06;9.40;99.90
18103;DHT22;9178;51.120;6.192;2023-03-14T00:40:33;9.40;99.90
18103;DHT22;9178;51.120;6.192;2023-03-14T00:43:01;9.30;99.90
18103;DHT22;9178;51.120;6.192;2023-03-14T00:45:28;9.30;99.90
18103;DHT22;9178;51.120;6.192;2023-03-14T00:47:55;9.20;99.90
18103;DHT22;9178;51.120;6.192;2023-03-14T00:50:22;9.20;99.90
18103;DHT22;9178;51.120;6.192;2023-03-14T00:52:49;9.20;99.90
18103;DHT22;9178;51.120;6.192;2023-03-14T00:55:15;9.20;99.90
18103;DHT22;9178;51.120;6.192;2023-03-14T00:57:42;9.20;99.90
18103;DHT22;9178;51.120;6.192;2023-03-14T01:00:13;9.20;99.90
18103;DHT22;9178;51.120;6.192;2023-03-14T01:02:40;9.10;99.90
18103;DHT22;9178;51.120;6.192;2023-03-14T01:05:08;9.10;99.90
18103;DHT22;9178;51.120;6.192;2023-03-14T01:07:35;9.10;99.90
18103;DHT22;9178;51.120;6.192;2023-03-14T01:10:04;9.20;99.90
18103;DHT22;9178;51.120;6.192;2023-03-14T01:12:31;9.20;99.90
18103;DHT22;9178;51.120;6.192;2023-03-14T01:14:58;9.20;99.90
18103;DHT22;9178;51.120;6.192;2023-03-14T01:17:28;9.20;99.90
18103;DHT22;9178;51.120;6.192;2023-03-14T01:19:55;9.30;99.90
18103;DHT22;9178;51.120;6.192;2023-03-14T01:22:22;9.30;99.90
18103;DHT22;9178;51.120;6.192;2023-03-14T01:24:49;9.40;99.90
18103;DHT22;9178;51.120;6.192;2023-03-14T01:27:16;9.40;99.90
18103;DHT22;9178;51.120;6.192;2023-03-14T01:29:43;9.40;99.90
18103;DHT22;9178;51.120;6.192;2023-03-14T01:32:09;9.40;99.90
18103;DHT22;9178;51.120;6.192;2023-03-14T01:34:38;9.40;99.90
18103;DHT22;9178;51.120;6.192;2023-03-14T01:37:04;9.40;99.90
18103;DHT22;9178;51.120;6.192;2023-03-14T01:39:33;9.40;99.90
18103;DHT22;9178;51.120;6.192;2023-03-14T01:42:00;9.50;99.90
18103;DHT22;9178;51.120;6.192;2023-03-14T01:44:27;9.50;99.90
18103;DHT22;9178;51.120;6.192;2023-03-14T01:46:54;9.50;99.90
18103;DHT22;9178;51.120;6.192;2023-03-14T01:49:25;9.50;99.90
18103;DHT22;9178;51.120;6.192;2023-03-14T01:51:57;9.60;99.90
18103;DHT22;9178;51.120;6.192;2023-03-14T01:54:28;9.60;99.90
18103;DHT22;9178;51.120;6.192;2023-03-14T01:56:59;9.60;99.90
18103;DHT22;9178;51.120;6.192;2023-03-14T01:59:30;9.60;99.90
18103;DHT22;9178;51.120;6.192;2023-03-14T02:01:58;9.60;99.90
18103;DHT22;9178;51.120;6.192;2023-03-14T02:04:28;9.60;99.90
18103;DHT22;9178;51.120;6.192;2023-03-14T02:07:03;9.60;99.90
18103;DHT22;9178;51.120;6.192;2023-03-14T02:09:32;9.60;99.90
18103;DHT22;9178;51.120;6.192;2023-03-14T02:11:59;9.60;99.90
18103;DHT22;9178;51.120;6.192;2023-03-14T02:14:31;9.60;99.90
18103;DHT22;9178;51.120;6.192;2023-03-14T02:16:59;9.60;99.90
18103;DHT22;9178;51.120;6.192;2023-03-14T02:19:35;9.50;99.90
18103;DHT22;9178;51.120;6.192;2023-03-14T02:22:09;9.50;99.90
18103;DHT22;9178;51.120;6.192;2023-03-14T02:24:43;9.50;99.90
18103;DHT22;9178;51.120;6.192;2023-03-14T02:27:15;9.50;99.90
18103;DHT22;9178;51.120;6.192;2023-03-14T02:29:48;9.50;99.90
18103;DHT22;9178;51.120;6.192;2023-03-14T02:32:17;9.50;99.90
18103;DHT22;9178;51.120;6.192;2023-03-14T02:34:46;9.50;99.90
18103;DHT22;9178;51.120;6.192;2023-03-14T02:37:15;9.50;99.90
18103;DHT22;9178;51.120;6.192;2023-03-14T02:39:45;9.50;99.90
18103;DHT22;9178;51.120;6.192;2023-03-14T02:42:16;9.50;99.90
18103;DHT22;9178;51.120;6.192;2023-03-14T02:44:49;9.50;99.90
18103;DHT22;9178;51.120;6.192;2023-03-14T02:47:19;9.50;99.90
18103;DHT22;9178;51.120;6.192;2023-03-14T02:49:46;9.40;99.90
18103;DHT22;9178;51.120;6.192;2023-03-14T02:52:13;9.50;99.90
18103;DHT22;9178;51.120;6.192;2023-03-14T02:54:40;9.50;99.90
18103;DHT22;9178;51.120;6.192;2023-03-14T02:57:07;9.50;99.90
18103;DHT22;9178;51.120;6.192;2023-03-14T02:59:35;9.50;99.90
18103;DHT22;9178;51.120;6.192;2023-03-14T03:02:02;9.50;99.90
18103;DHT22;9178;51.120;6.192;2023-03-14T03:04:29;9.50;99.90
18103;DHT22;9178;51.120;6.192;2023-03-14T03:06:56;9.50;99.90
18103;DHT22;9178;51.120;6.192;2023-03-14T03:09:22;9.50;99.90
18103;DHT22;9178;51.120;6.192;2023-03-14T03:11:49;9.50;99.90
18103;DHT22;9178;51.120;6.192;2023-03-14T03:14:16;9.40;99.90
18103;DHT22;9178;51.120;6.192;2023-03-14T03:16:44;9.50;99.90
18103;DHT22;9178;51.120;6.192;2023-03-14T03:19:11;9.50;99.90
18103;DHT22;9178;51.120;6.192;2023-03-14T03:21:39;9.40;99.90
18103;DHT22;9178;51.120;6.192;2023-03-14T03:24:11;9.50;99.90
18103;DHT22;9178;51.120;6.192;2023-03-14T03:26:38;9.40;99.90
18103;DHT22;9178;51.120;6.192;2023-03-14T03:29:04;9.40;99.90
18103;DHT22;9178;51.120;6.192;2023-03-14T03:31:31;9.40;99.90
18103;DHT22;9178;51.120;6.192;2023-03-14T03:33:59;9.30;99.90
18103;DHT22;9178;51.120;6.192;2023-03-14T03:36:26;9.30;99.90
18103;DHT22;9178;51.120;6.192;2023-03-14T03:38:53;9.20;99.90
18103;DHT22;9178;51.120;6.192;2023-03-14T03:41:20;9.20;99.90
18103;DHT22;9178;51.120;6.192;2023-03-14T03:43:47;9.20;99.90
18103;DHT22;9178;51.120;6.192;2023-03-14T03:46:14;9.20;99.90
18103;DHT22;9178;51.120;6.192;2023-03-14T03:48:40;9.10;99.90
18103;DHT22;9178;51.120;6.192;2023-03-14T03:51:12;9.00;99.90
18103;DHT22;9178;51.120;6.192;2023-03-14T03:53:40;9.00;99.90
18103;DHT22;9178;51.120;6.192;2023-03-14T03:56:07;8.90;99.90
18103;DHT22;9178;51.120;6.192;2023-03-14T03:58:35;8.90;99.90
18103;DHT22;9178;51.120;6.192;2023-03-14T04:01:04;8.90;99.90
18103;DHT22;9178;51.120;6.192;2023-03-14T04:03:31;8.90;99.90
18103;DHT22;9178;51.120;6.192;2023-03-14T04:05:59;8.90;99.90
18103;DHT22;9178;51.120;6.192;2023-03-14T04:08:28;8.90;99.90
18103;DHT22;9178;51.120;6.192;2023-03-14T04:10:56;8.90;99.90
18103;DHT22;9178;51.120;6.192;2023-03-14T04:13:23;8.90;99.90
18103;DHT22;9178;51.120;6.192;2023-03-14T04:15:51;8.90;99.90
18103;DHT22;9178;51.120;6.192;2023-03-14T04:18:18;8.90;99.90
18103;DHT22;9178;51.120;6.192;2023-03-14T04:20:45;9.00;99.90
18103;DHT22;9178;51.120;6.192;2023-03-14T04:23:12;8.90;99.90
18103;DHT22;9178;51.120;6.192;2023-03-14T04:25:40;9.00;99.90
18103;DHT22;9178;51.120;6.192;2023-03-14T04:28:07;9.00;99.90
18103;DHT22;9178;51.120;6.192;2023-03-14T04:30:34;8.90;99.90
18103;DHT22;9178;51.120;6.192;2023-03-14T04:33:01;9.00;99.90
18103;DHT22;9178;51.120;6.192;2023-03-14T04:35:31;9.00;99.90
18103;DHT22;9178;51.120;6.192;2023-03-14T04:37:58;9.00;99.90
18103;DHT22;9178;51.120;6.192;2023-03-14T04:40:25;9.00;99.90
18103;DHT22;9178;51.120;6.192;2023-03-14T04:42:53;9.00;99.90
18103;DHT22;9178;51.120;6.192;2023-03-14T04:45:20;9.00;99.90
18103;DHT22;9178;51.120;6.192;2023-03-14T04:47:47;9.00;99.90
18103;DHT22;9178;51.120;6.192;2023-03-14T04:50:13;9.00;99.90
18103;DHT22;9178;51.120;6.192;2023-03-14T04:52:40;9.00;99.90
18103;DHT22;9178;51.120;6.192;2023-03-14T04:55:07;9.00;99.90
18103;DHT22;9178;51.120;6.192;2023-03-14T04:57:34;9.00;99.90
18103;DHT22;9178;51.120;6.192;2023-03-14T05:00:03;9.00;99.90
18103;DHT22;9178;51.120;6.192;2023-03-14T05:02:33;9.00;99.90
18103;DHT22;9178;51.120;6.192;2023-03-14T05:04:59;9.00;99.90
18103;DHT22;9178;51.120;6.192;2023-03-14T05:07:26;9.10;99.90
18103;DHT22;9178;51.120;6.192;2023-03-14T05:09:54;9.10;99.90
18103;DHT22;9178;51.120;6.192;2023-03-14T05:12:21;9.10;99.90
18103;DHT22;9178;51.120;6.192;2023-03-14T05:14:48;9.10;99.90
18103;DHT22;9178;51.120;6.192;2023-03-14T05:17:16;9.20;99.90
18103;DHT22;9178;51.120;6.192;2023-03-14T05:19:44;9.10;99.90
18103;DHT22;9178;51.120;6.192;2023-03-14T05:22:11;9.20;99.90
18103;DHT22;9178;51.120;6.192;2023-03-14T05:24:38;9.10;99.90
18103;DHT22;9178;51.120;6.192;2023-03-14T05:27:05;9.10;99.90
18103;DHT22;9178;51.120;6.192;2023-03-14T05:29:31;9.10;99.90
18103;DHT22;9178;51.120;6.192;2023-03-14T05:31:58;9.10;99.90
18103;DHT22;9178;51.120;6.192;2023-03-14T05:34:26;9.10;99.90
18103;DHT22;9178;51.120;6.192;2023-03-14T05:36:56;9.20;99.90
18103;DHT22;9178;51.120;6.192;2023-03-14T05:39:23;9.10;99.90
18103;DHT22;9178;51.120;6.192;2023-03-14T05:41:50;9.10;99.90
18103;DHT22;9178;51.120;6.192;2023-03-14T05:44:19;9.10;99.90
18103;DHT22;9178;51.120;6.192;2023-03-14T05:46:46;9.20;99.90
18103;DHT22;9178;51.120;6.192;2023-03-14T05:49:12;9.10;99.90
18103;DHT22;9178;51.120;6.192;2023-03-14T05:51:42;9.20;99.90
18103;DHT22;9178;51.120;6.192;2023-03-14T05:54:08;9.10;99.90
18103;DHT22;9178;51.120;6.192;2023-03-14T05:56:35;9.10;99.90
18103;DHT22;9178;51.120;6.192;2023-03-14T05:59:02;9.10;99.90
18103;DHT22;9178;51.120;6.192;2023-03-14T06:01:29;9.10;99.90
18103;DHT22;9178;51.120;6.192;2023-03-14T06:03:56;9.10;99.90
18103;DHT22;9178;51.120;6.192;2023-03-14T06:06:23;9.10;99.90
18103;DHT22;9178;51.120;6.192;2023-03-14T06:08:52;9.10;99.90
18103;DHT22;9178;51.120;6.192;2023-03-14T06:11:18;9.10;99.90
18103;DHT22;9178;51.120;6.192;2023-03-14T06:13:45;9.10;99.90
18103;DHT22;9178;51.120;6.192;2023-03-14T06:16:12;9.10;99.90
18103;DHT22;9178;51.120;6.192;2023-03-14T06:18:39;9.20;99.90
18103;DHT22;9178;51.120;6.192;2023-03-14T06:21:07;9.20;99.90
18103;DHT22;9178;51.120;6.192;2023-03-14T06:23:34;9.20;99.90
18103;DHT22;9178;51.120;6.192;2023-03-14T06:26:02;9.20;99.90
18103;DHT22;9178;51.120;6.192;2023-03-14T06:28:29;9.20;99.90
18103;DHT22;9178;51.120;6.192;2023-03-14T06:30:56;9.20;99.90
18103;DHT22;9178;51.120;6.192;2023-03-14T06:33:23;9.20;99.90
18103;DHT22;9178;51.120;6.192;2023-03-14T06:35:49;9.20;99.90
18103;DHT22;9178;51.120;6.192;2023-03-14T06:38:16;9.20;99.90
18103;DHT22;9178;51.120;6.192;2023-03-14T06:40:43;9.30;99.90
18103;DHT22;9178;51.120;6.192;2023-03-14T06:43:12;9.30;99.90
18103;DHT22;9178;51.120;6.192;2023-03-14T06:45:39;9.30;99.90
18103;DHT22;9178;51.120;6.192;2023-03-14T06:48:06;9.30;99.90
18103;DHT22;9178;51.120;6.192;2023-03-14T06:50:33;9.30;99.90
18103;DHT22;9178;51.120;6.192;2023-03-14T06:52:59;9.40;99.90
18103;DHT22;9178;51.120;6.192;2023-03-14T06:55:26;9.30;99.90
18103;DHT22;9178;51.120;6.192;2023-03-14T06:57:53;9.40;99.90
18103;DHT22;9178;51.120;6.192;2023-03-14T07:00:22;9.40;99.90
18103;DHT22;9178;51.120;6.192;2023-03-14T07:02:50;9.50;99.90
18103;DHT22;9178;51.120;6.192;2023-03-14T07:05:17;9.50;99.90
18103;DHT22;9178;51.120;6.192;2023-03-14T07:07:44;9.60;99.90
18103;DHT22;9178;51.120;6.192;2023-03-14T07:10:11;9.60;99.90
18103;DHT22;9178;51.120;6.192;2023-03-14T07:12:38;9.60;99.90
18103;DHT22;9178;51.120;6.192;2023-03-14T07:15:05;9.60;99.90
18103;DHT22;9178;51.120;6.192;2023-03-14T07:17:33;9.70;99.90
18103;DHT22;9178;51.120;6.192;2023-03-14T07:20:00;9.70;99.90
18103;DHT22;9178;51.120;6.192;2023-03-14T07:22:29;9.70;99.90
18103;DHT22;9178;51.120;6.192;2023-03-14T07:24:56;9.80;99.90
18103;DHT22;9178;51.120;6.192;2023-03-14T07:27:23;9.80;99.90
18103;DHT22;9178;51.120;6.192;2023-03-14T07:29:50;9.80;99.90
18103;DHT22;9178;51.120;6.192;2023-03-14T07:32:17;9.90;99.90
18103;DHT22;9178;51.120;6.192;2023-03-14T07:34:45;9.90;99.90
18103;DHT22;9178;51.120;6.192;2023-03-14T07:37:12;10.00;99.90
18103;DHT22;9178;51.120;6.192;2023-03-14T07:39:38;10.00;99.90
18103;DHT22;9178;51.120;6.192;2023-03-14T07:42:05;10.00;99.90
18103;DHT22;9178;51.120;6.192;2023-03-14T07:44:33;10.10;99.90
18103;DHT22;9178;51.120;6.192;2023-03-14T07:47:00;10.10;99.90
18103;DHT22;9178;51.120;6.192;2023-03-14T07:49:26;10.10;99.90
18103;DHT22;9178;51.120;6.192;2023-03-14T07:51:55;10.20;99.90
18103;DHT22;9178;51.120;6.192;2023-03-14T07:54:22;10.20;99.90
18103;DHT22;9178;51.120;6.192;2023-03-14T07:56:50;10.20;99.90
18103;DHT22;9178;51.120;6.192;2023-03-14T07:59:17;10.30;99.90
18103;DHT22;9178;51.120;6.192;2023-03-14T08:01:44;10.30;99.90
18103;DHT22;9178;51.120;6.192;2023-03-14T08:04:11;10.30;99.90
18103;DHT22;9178;51.120;6.192;2023-03-14T08:06:38;10.30;99.90
18103;DHT22;9178;51.120;6.192;2023-03-14T08:09:06;10.30;99.90
18103;DHT22;9178;51.120;6.192;2023-03-14T08:11:33;10.30;99.90
18103;DHT22;9178;51.120;6.192;2023-03-14T08:14:00;10.30;99.90
18103;DHT22;9178;51.120;6.192;2023-03-14T08:16:27;10.30;99.90
18103;DHT22;9178;51.120;6.192;2023-03-14T08:18:54;10.30;99.90
18103;DHT22;9178;51.120;6.192;2023-03-14T08:21:21;10.30;99.90
18103;DHT22;9178;51.120;6.192;2023-03-14T08:23:48;10.30;99.90
18103;DHT22;9178;51.120;6.192;2023-03-14T08:26:16;10.30;99.90
18103;DHT22;9178;51.120;6.192;2023-03-14T08:28:43;10.20;99.90
18103;DHT22;9178;51.120;6.192;2023-03-14T08:31:22;10.20;99.90
18103;DHT22;9178;51.120;6.192;2023-03-14T08:33:59;10.30;99.90
18103;DHT22;9178;51.120;6.192;2023-03-14T08:36:27;10.30;99.90
18103;DHT22;9178;51.120;6.192;2023-03-14T08:38:54;10.20;99.90
18103;DHT22;9178;51.120;6.192;2023-03-14T08:41:22;10.20;99.90
18103;DHT22;9178;51.120;6.192;2023-03-14T08:43:51;10.20;99.90
18103;DHT22;9178;51.120;6.192;2023-03-14T08:46:18;9.90;99.90
18103;DHT22;9178;51.120;6.192;2023-03-14T08:48:45;9.70;99.90
18103;DHT22;9178;51.120;6.192;2023-03-14T08:51:13;9.50;99.90
18103;DHT22;9178;51.120;6.192;2023-03-14T08:53:43;9.30;99.90
18103;DHT22;9178;51.120;6.192;2023-03-14T08:56:10;9.20;99.90
18103;DHT22;9178;51.120;6.192;2023-03-14T08:58:38;9.10;99.90
18103;DHT22;9178;51.120;6.192;2023-03-14T09:01:08;9.00;99.90
18103;DHT22;9178;51.120;6.192;2023-03-14T09:03:36;8.90;99.90
18103;DHT22;9178;51.120;6.192;2023-03-14T09:06:04;8.70;99.90
18103;DHT22;9178;51.120;6.192;2023-03-14T09:08:31;8.60;99.90
18103;DHT22;9178;51.120;6.192;2023-03-14T09:10:58;8.50;99.90
18103;DHT22;9178;51.120;6.192;2023-03-14T09:13:27;8.50;99.90
18103;DHT22;9178;51.120;6.192;2023-03-14T09:15:56;8.40;99.90
18103;DHT22;9178;51.120;6.192;2023-03-14T09:18:23;8.30;99.90
18103;DHT22;9178;51.120;6.192;2023-03-14T09:20:50;8.20;99.90
18103;DHT22;9178;51.120;6.192;2023-03-14T09:23:17;8.20;99.90
18103;DHT22;9178;51.120;6.192;2023-03-14T09:25:43;8.20;99.90
18103;DHT22;9178;51.120;6.192;2023-03-14T09:28:10;8.20;99.90
18103;DHT22;9178;51.120;6.192;2023-03-14T09:30:37;8.20;99.90
18103;DHT22;9178;51.120;6.192;2023-03-14T09:33:05;8.20;99.90
18103;DHT22;9178;51.120;6.192;2023-03-14T09:35:33;8.20;99.90
18103;DHT22;9178;51.120;6.192;2023-03-14T09:38:00;8.10;99.90
18103;DHT22;9178;51.120;6.192;2023-03-14T09:40:32;8.10;99.90
18103;DHT22;9178;51.120;6.192;2023-03-14T09:43:00;8.00;99.90
18103;DHT22;9178;51.120;6.192;2023-03-14T09:45:29;8.00;99.90
18103;DHT22;9178;51.120;6.192;2023-03-14T09:47:58;8.00;99.90
18103;DHT22;9178;51.120;6.192;2023-03-14T09:50:32;8.00;99.90
18103;DHT22;9178;51.120;6.192;2023-03-14T09:53:07;8.10;99.90
18103;DHT22;9178;51.120;6.192;2023-03-14T09:55:36;8.20;99.90
18103;DHT22;9178;51.120;6.192;2023-03-14T09:58:10;8.30;99.90
18103;DHT22;9178;51.120;6.192;2023-03-14T10:00:38;8.20;99.90
18103;DHT22;9178;51.120;6.192;2023-03-14T10:03:22;8.20;99.90
18103;DHT22;9178;51.120;6.192;2023-03-14T10:05:50;8.10;99.90
18103;DHT22;9178;51.120;6.192;2023-03-14T10:08:17;8.00;99.90
18103;DHT22;9178;51.120;6.192;2023-03-14T10:10:44;8.00;99.90
18103;DHT22;9178;51.120;6.192;2023-03-14T10:13:15;7.90;99.90
18103;DHT22;9178;51.120;6.192;2023-03-14T10:15:48;7.90;99.90
18103;DHT22;9178;51.120;6.192;2023-03-14T10:18:15;8.00;99.90
18103;DHT22;9178;51.120;6.192;2023-03-14T10:20:43;8.00;99.90
18103;DHT22;9178;51.120;6.192;2023-03-14T10:23:27;8.10;99.90
18103;DHT22;9178;51.120;6.192;2023-03-14T10:26:06;8.20;99.90
18103;DHT22;9178;51.120;6.192;2023-03-14T10:28:38;8.20;99.90
18103;DHT22;9178;51.120;6.192;2023-03-14T10:31:06;8.30;99.90
18103;DHT22;9178;51.120;6.192;2023-03-14T10:33:35;8.40;99.90
18103;DHT22;9178;51.120;6.192;2023-03-14T10:36:05;8.40;99.90
18103;DHT22;9178;51.120;6.192;2023-03-14T10:38:36;8.40;99.90
18103;DHT22;9178;51.120;6.192;2023-03-14T10:41:15;8.40;99.90
18103;DHT22;9178;51.120;6.192;2023-03-14T10:43:43;8.40;99.90
18103;DHT22;9178;51.120;6.192;2023-03-14T10:46:14;8.50;99.90
18103;DHT22;9178;51.120;6.192;2023-03-14T10:48:43;8.50;99.90
18103;DHT22;9178;51.120;6.192;2023-03-14T10:51:17;8.50;99.90
18103;DHT22;9178;51.120;6.192;2023-03-14T10:53:48;8.60;99.90
18103;DHT22;9178;51.120;6.192;2023-03-14T10:56:17;8.60;99.90
18103;DHT22;9178;51.120;6.192;2023-03-14T10:58:46;8.50;99.90
18103;DHT22;9178;51.120;6.192;2023-03-14T11:01:23;8.10;99.90
18103;DHT22;9178;51.120;6.192;2023-03-14T11:03:57;7.60;99.90
18103;DHT22;9178;51.120;6.192;2023-03-14T11:06:31;7.40;99.90
18103;DHT22;9178;51.120;6.192;2023-03-14T11:09:10;7.30;99.90
18103;DHT22;9178;51.120;6.192;2023-03-14T11:11:39;7.30;99.90
18103;DHT22;9178;51.120;6.192;2023-03-14T11:14:15;7.40;99.90
18103;DHT22;9178;51.120;6.192;2023-03-14T11:16:53;7.40;99.90
18103;DHT22;9178;51.120;6.192;2023-03-14T11:19:37;7.30;99.90
18103;DHT22;9178;51.120;6.192;2023-03-14T11:22:20;7.40;99.90
18103;DHT22;9178;51.120;6.192;2023-03-14T11:25:02;7.50;99.90
18103;DHT22;9178;51.120;6.192;2023-03-14T11:27:39;7.80;99.90
18103;DHT22;9178;51.120;6.192;2023-03-14T11:30:20;8.00;99.90
18103;DHT22;9178;51.120;6.192;2023-03-14T11:32:56;8.20;99.90
18103;DHT22;9178;51.120;6.192;2023-03-14T11:35:28;8.30;99.90
18103;DHT22;9178;51.120;6.192;2023-03-14T11:38:01;8.30;99.90
18103;DHT22;9178;51.120;6.192;2023-03-14T11:40:33;8.30;99.90
18103;DHT22;9178;51.120;6.192;2023-03-14T11:43:05;8.30;99.90
18103;DHT22;9178;51.120;6.192;2023-03-14T11:45:37;8.00;99.90
18103;DHT22;9178;51.120;6.192;2023-03-14T11:48:16;7.90;99.90
18103;DHT22;9178;51.120;6.192;2023-03-14T11:50:48;7.80;99.90
18103;DHT22;9178;51.120;6.192;2023-03-14T11:53:20;7.70;99.90
18103;DHT22;9178;51.120;6.192;2023-03-14T11:55:50;7.60;99.90
18103;DHT22;9178;51.120;6.192;2023-03-14T11:58:20;7.60;99.90
18103;DHT22;9178;51.120;6.192;2023-03-14T12:00:50;7.70;99.90
18103;DHT22;9178;51.120;6.192;2023-03-14T12:03:27;7.60;99.90
18103;DHT22;9178;51.120;6.192;2023-03-14T12:06:04;7.70;99.90
18103;DHT22;9178;51.120;6.192;2023-03-14T12:08:45;7.80;99.90
18103;DHT22;9178;51.120;6.192;2023-03-14T12:11:19;9.00;99.90
18103;DHT22;9178;51.120;6.192;2023-03-14T12:13:49;9.90;99.90
18103;DHT22;9178;51.120;6.192;2023-03-14T12:16:33;10.30;99.90
18103;DHT22;9178;51.120;6.192;2023-03-14T12:19:35;10.10;99.90
18103;DHT22;9178;51.120;6.192;2023-03-14T12:22:27;10.00;99.90
18103;DHT22;9178;51.120;6.192;2023-03-14T12:25:05;9.80;99.90
18103;DHT22;9178;51.120;6.192;2023-03-14T12:27:46;9.90;99.90
18103;DHT22;9178;51.120;6.192;2023-03-14T12:30:27;10.40;99.90
18103;DHT22;9178;51.120;6.192;2023-03-14T12:36:11;11.40;99.90
18103;DHT22;9178;51.120;6.192;2023-03-14T12:38:59;12.00;99.90
18103;DHT22;9178;51.120;6.192;2023-03-14T12:41:29;12.10;99.90
18103;DHT22;9178;51.120;6.192;2023-03-14T12:44:39;12.20;99.90
18103;DHT22;9178;51.120;6.192;2023-03-14T12:47:41;12.80;99.90
18103;DHT22;9178;51.120;6.192;2023-03-14T12:50:14;12.60;99.90
18103;DHT22;9178;51.120;6.192;2023-03-14T12:52:57;11.70;99.90
18103;DHT22;9178;51.120;6.192;2023-03-14T12:55:33;10.90;99.90
18103;DHT22;9178;51.120;6.192;2023-03-14T12:58:08;10.20;99.90
18103;DHT22;9178;51.120;6.192;2023-03-14T13:00:42;9.60;99.90
18103;DHT22;9178;51.120;6.192;2023-03-14T13:03:18;9.30;99.90
18103;DHT22;9178;51.120;6.192;2023-03-14T13:05:55;9.20;99.90
18103;DHT22;9178;51.120;6.192;2023-03-14T13:08:35;9.20;99.90
18103;DHT22;9178;51.120;6.192;2023-03-14T13:11:05;9.00;99.90
18103;DHT22;9178;51.120;6.192;2023-03-14T13:13:35;8.80;99.90
18103;DHT22;9178;51.120;6.192;2023-03-14T13:16:09;8.60;99.90
18103;DHT22;9178;51.120;6.192;2023-03-14T13:18:40;8.30;99.90
18103;DHT22;9178;51.120;6.192;2023-03-14T13:21:12;8.30;99.90
18103;DHT22;9178;51.120;6.192;2023-03-14T13:23:40;8.20;99.90
18103;DHT22;9178;51.120;6.192;2023-03-14T13:26:11;8.10;99.90
18103;DHT22;9178;51.120;6.192;2023-03-14T13:28:39;8.20;99.90
18103;DHT22;9178;51.120;6.192;2023-03-14T13:31:20;8.20;99.90
18103;DHT22;9178;51.120;6.192;2023-03-14T13:33:56;8.20;99.90
18103;DHT22;9178;51.120;6.192;2023-03-14T13:36:23;8.10;99.90
18103;DHT22;9178;51.120;6.192;2023-03-14T13:38:56;8.10;99.90
18103;DHT22;9178;51.120;6.192;2023-03-14T13:41:24;8.10;99.90
18103;DHT22;9178;51.120;6.192;2023-03-14T13:43:51;8.00;99.90
18103;DHT22;9178;51.120;6.192;2023-03-14T13:46:23;7.90;99.90
18103;DHT22;9178;51.120;6.192;2023-03-14T13:48:53;8.00;99.90
18103;DHT22;9178;51.120;6.192;2023-03-14T13:51:22;8.20;99.90
18103;DHT22;9178;51.120;6.192;2023-03-14T13:53:52;8.30;99.90
18103;DHT22;9178;51.120;6.192;2023-03-14T13:56:20;8.40;99.90
18103;DHT22;9178;51.120;6.192;2023-03-14T13:58:48;8.60;99.90
18103;DHT22;9178;51.120;6.192;2023-03-14T14:01:17;8.70;99.90
18103;DHT22;9178;51.120;6.192;2023-03-14T14:03:48;8.70;99.90
18103;DHT22;9178;51.120;6.192;2023-03-14T14:06:30;8.80;99.90
18103;DHT22;9178;51.120;6.192;2023-03-14T14:08:59;8.90;99.90
18103;DHT22;9178;51.120;6.192;2023-03-14T14:11:41;9.10;99.90
18103;DHT22;9178;51.120;6.192;2023-03-14T14:14:12;9.10;99.90
18103;DHT22;9178;51.120;6.192;2023-03-14T14:16:45;9.10;99.90
18103;DHT22;9178;51.120;6.192;2023-03-14T14:19:16;9.00;99.90
18103;DHT22;9178;51.120;6.192;2023-03-14T14:21:44;8.90;99.90
18103;DHT22;9178;51.120;6.192;2023-03-14T14:24:15;8.90;99.90
18103;DHT22;9178;51.120;6.192;2023-03-14T14:26:47;8.90;99.90
18103;DHT22;9178;51.120;6.192;2023-03-14T14:29:24;8.80;99.90
18103;DHT22;9178;51.120;6.192;2023-03-14T14:32:00;8.70;99.90
18103;DHT22;9178;51.120;6.192;2023-03-14T14:34:29;8.70;99.90
18103;DHT22;9178;51.120;6.192;2023-03-14T14:37:04;8.80;99.90
18103;DHT22;9178;51.120;6.192;2023-03-14T14:39:31;8.80;99.90
18103;DHT22;9178;51.120;6.192;2023-03-14T14:41:58;8.90;99.90
18103;DHT22;9178;51.120;6.192;2023-03-14T14:44:29;8.90;99.90
18103;DHT22;9178;51.120;6.192;2023-03-14T14:46:57;9.00;99.90
18103;DHT22;9178;51.120;6.192;2023-03-14T14:49:30;9.00;99.90
18103;DHT22;9178;51.120;6.192;2023-03-14T14:52:03;9.00;99.90
18103;DHT22;9178;51.120;6.192;2023-03-14T14:54:37;9.10;99.90
18103;DHT22;9178;51.120;6.192;2023-03-14T14:57:06;9.10;99.90
18103;DHT22;9178;51.120;6.192;2023-03-14T14:59:42;9.10;99.90
18103;DHT22;9178;51.120;6.192;2023-03-14T15:02:24;9.10;99.90
18103;DHT22;9178;51.120;6.192;2023-03-14T15:04:55;9.00;99.90
18103;DHT22;9178;51.120;6.192;2023-03-14T15:07:22;9.00;99.90
18103;DHT22;9178;51.120;6.192;2023-03-14T15:09:49;9.00;99.90
18103;DHT22;9178;51.120;6.192;2023-03-14T15:12:16;9.10;99.90
18103;DHT22;9178;51.120;6.192;2023-03-14T15:14:42;9.10;99.90
18103;DHT22;9178;51.120;6.192;2023-03-14T15:17:10;9.00;99.90
18103;DHT22;9178;51.120;6.192;2023-03-14T15:19:38;8.90;99.90
18103;DHT22;9178;51.120;6.192;2023-03-14T15:22:11;8.90;99.90
18103;DHT22;9178;51.120;6.192;2023-03-14T15:24:38;8.90;99.90
18103;DHT22;9178;51.120;6.192;2023-03-14T15:27:11;8.80;99.90
18103;DHT22;9178;51.120;6.192;2023-03-14T15:29:39;8.80;99.90
18103;DHT22;9178;51.120;6.192;2023-03-14T15:32:08;8.80;99.90
18103;DHT22;9178;51.120;6.192;2023-03-14T15:34:36;8.70;99.90
18103;DHT22;9178;51.120;6.192;2023-03-14T15:37:03;8.70;99.90
18103;DHT22;9178;51.120;6.192;2023-03-14T15:39:34;8.70;99.90
18103;DHT22;9178;51.120;6.192;2023-03-14T15:42:01;8.50;99.90
18103;DHT22;9178;51.120;6.192;2023-03-14T15:44:28;8.40;99.90
18103;DHT22;9178;51.120;6.192;2023-03-14T15:46:54;8.40;99.90
18103;DHT22;9178;51.120;6.192;2023-03-14T15:49:21;8.30;99.90
18103;DHT22;9178;51.120;6.192;2023-03-14T15:51:48;8.30;99.90
18103;DHT22;9178;51.120;6.192;2023-03-14T15:54:15;8.30;99.90
18103;DHT22;9178;51.120;6.192;2023-03-14T15:56:43;8.30;99.90
18103;DHT22;9178;51.120;6.192;2023-03-14T15:59:10;8.30;99.90
18103;DHT22;9178;51.120;6.192;2023-03-14T16:01:37;8.30;99.90
18103;DHT22;9178;51.120;6.192;2023-03-14T16:04:04;8.20;99.90
18103;DHT22;9178;51.120;6.192;2023-03-14T16:06:31;8.20;99.90
18103;DHT22;9178;51.120;6.192;2023-03-14T16:09:00;8.10;99.90
18103;DHT22;9178;51.120;6.192;2023-03-14T16:11:27;8.00;99.90
18103;DHT22;9178;51.120;6.192;2023-03-14T16:13:55;7.90;99.90
18103;DHT22;9178;51.120;6.192;2023-03-14T16:16:22;7.80;99.90
18103;DHT22;9178;51.120;6.192;2023-03-14T16:18:49;7.80;99.90